sensor_id;sensor_type;location;lat;lon;timestamp;pressure;altitude;pressure_sealevel;temperature;humidity
74427;BME280;62859;53.906;27.430;2023-04-03T00:01:13;1009.5;;;3.1;57.9
74427;BME280;62859;53.906;27.430;2023-04-03T00:06:37;1009.5;;;3;57.4
74427;BME280;62859;53.906;27.430;2023-04-03T00:11:19;1009.4;;;2.9;57.2
74427;BME280;62859;53.906;27.430;2023-04-03T00:16:10;1009.4;;;2.8;57
74427;BME280;62859;53.906;27.430;2023-04-03T00:21:35;1009.4;;;2.8;56.6
74427;BME280;62859;53.906;27.430;2023-04-03T00:26:27;1009.4;;;2.6;57
74427;BME280;62859;53.906;27.430;2023-04-03T00:31:35;1009.5;;;2.6;57.1
74427;BME280;62859;53.906;27.430;2023-04-03T00:36:19;1009.5;;;2.7;57.2
74427;BME280;62859;53.906;27.430;2023-04-03T00:40:55;1009.6;;;2.7;57.1
74427;BME280;62859;53.906;27.430;2023-04-03T00:46:35;1009.6;;;2.7;57.4
74427;BME280;62859;53.906;27.430;2023-04-03T00:51:14;1009.6;;;2.7;57.9
74427;BME280;62859;53.906;27.430;2023-04-03T00:56:37;1009.6;;;2.8;58.4
74427;BME280;62859;53.906;27.430;2023-04-03T01:01:20;1009.6;;;2.8;58.4
74427;BME280;62859;53.906;27.430;2023-04-03T01:06:05;1009.6;;;2.8;58.7
74427;BME280;62859;53.906;27.430;2023-04-03T01:11:35;1009.6;;;2.8;59.1
74427;BME280;62859;53.906;27.430;2023-04-03T01:16:13;1009.6;;;2.8;59.3
74427;BME280;62859;53.906;27.430;2023-04-03T01:21:41;1009.6;;;2.8;59.4
74427;BME280;62859;53.906;27.430;2023-04-03T01:26:19;1009.7;;;3;59.5
74427;BME280;62859;53.906;27.430;2023-04-03T01:31:08;1009.7;;;3.1;59.2
74427;BME280;62859;53.906;27.430;2023-04-03T01:36:35;1009.7;;;3.2;58.7
74427;BME280;62859;53.906;27.430;2023-04-03T01:41:05;1009.8;;;3.3;57.7
74427;BME280;62859;53.906;27.430;2023-04-03T01:46:37;1009.7;;;3.2;56.8
74427;BME280;62859;53.906;27.430;2023-04-03T01:51:19;1009.8;;;3.2;56.3
74427;BME280;62859;53.906;27.430;2023-04-03T01:56:05;1009.8;;;3.2;55.6
74427;BME280;62859;53.906;27.430;2023-04-03T02:01:35;1009.9;;;3.1;55.4
74427;BME280;62859;53.906;27.430;2023-04-03T02:06:15;1009.8;;;3.1;55.6
74427;BME280;62859;53.906;27.430;2023-04-03T02:11:35;1009.9;;;3;56
74427;BME280;62859;53.906;27.430;2023-04-03T02:16:11;1009.8;;;2.9;55.9
74427;BME280;62859;53.906;27.430;2023-04-03T02:20:55;1009.8;;;2.8;55.4
74427;BME280;62859;53.906;27.430;2023-04-03T02:26:35;1009.8;;;2.7;55.4
74427;BME280;62859;53.906;27.430;2023-04-03T02:31:09;1009.8;;;2.6;56
74427;BME280;62859;53.906;27.430;2023-04-03T02:36:35;1009.7;;;2.6;55.9
74427;BME280;62859;53.906;27.430;2023-04-03T02:41:19;1009.8;;;2.6;56
74427;BME280;62859;53.906;27.430;2023-04-03T02:45:55;1009.9;;;2.7;56
74427;BME280;62859;53.906;27.430;2023-04-03T02:51:35;1010;;;2.7;55.8
74427;BME280;62859;53.906;27.430;2023-04-03T02:56:27;1009.9;;;2.7;55.6
74427;BME280;62859;53.906;27.430;2023-04-03T03:01:35;1010.1;;;2.6;55.9
74427;BME280;62859;53.906;27.430;2023-04-03T03:06:10;1010.1;;;2.6;56.3
74427;BME280;62859;53.906;27.430;2023-04-03T03:11:06;1010.1;;;2.5;56.4
74427;BME280;62859;53.906;27.430;2023-04-03T03:16:35;1010.1;;;2.5;57
74427;BME280;62859;53.906;27.430;2023-04-03T03:21:13;1010.1;;;2.5;57.6
74427;BME280;62859;53.906;27.430;2023-04-03T03:26:38;1010.1;;;2.4;57.8
74427;BME280;62859;53.906;27.430;2023-04-03T03:31:19;1010;;;2.3;58
74427;BME280;62859;53.906;27.430;2023-04-03T03:35:55;1010;;;2.3;57.7
74427;BME280;62859;53.906;27.430;2023-04-03T03:41:35;1010;;;2.2;57.2
74427;BME280;62859;53.906;27.430;2023-04-03T03:46:13;1010;;;2.1;57.1
74427;BME280;62859;53.906;27.430;2023-04-03T03:51:25;1010.1;;;2.2;56.6
74427;BME280;62859;53.906;27.430;2023-04-03T03:56:35;1010.2;;;2.1;56.8
74427;BME280;62859;53.906;27.430;2023-04-03T04:00:55;1010.2;;;2.1;56.7
74427;BME280;62859;53.906;27.430;2023-04-03T04:06:35;1010.2;;;2;57.3
74427;BME280;62859;53.906;27.430;2023-04-03T04:10:55;1010.2;;;2.1;56.8
74427;BME280;62859;53.906;27.430;2023-04-03T04:16:25;1010.1;;;2.2;56.6
74427;BME280;62859;53.906;27.430;2023-04-03T04:21:35;1010.2;;;2.3;56.8
74427;BME280;62859;53.906;27.430;2023-04-03T04:26:27;1010.1;;;2.2;56.7
74427;BME280;62859;53.906;27.430;2023-04-03T04:31:36;1010.2;;;2.1;56.7
74427;BME280;62859;53.906;27.430;2023-04-03T04:36:13;1010.1;;;2.1;56.4
74427;BME280;62859;53.906;27.430;2023-04-03T04:41:25;1010.1;;;2;56.9
74427;BME280;62859;53.906;27.430;2023-04-03T04:46:35;1010.2;;;2;56.9
74427;BME280;62859;53.906;27.430;2023-04-03T04:51:14;1010.2;;;1.9;56.9
74427;BME280;62859;53.906;27.430;2023-04-03T04:56:21;1010.1;;;1.9;57
74427;BME280;62859;53.906;27.430;2023-04-03T05:00:59;1010.2;;;1.9;57.1
74427;BME280;62859;53.906;27.430;2023-04-03T05:06:25;1010.1;;;2;57
74427;BME280;62859;53.906;27.430;2023-04-03T05:11:35;1010.1;;;1.9;57.4
74427;BME280;62859;53.906;27.430;2023-04-03T05:16:27;1010.2;;;1.9;57.2
74427;BME280;62859;53.906;27.430;2023-04-03T05:21:35;1010.3;;;1.9;57.3
74427;BME280;62859;53.906;27.430;2023-04-03T05:26:03;1010.3;;;2;57
74427;BME280;62859;53.906;27.430;2023-04-03T05:31:25;1010.2;;;2.1;56.7
74427;BME280;62859;53.906;27.430;2023-04-03T05:36:36;1010.3;;;2.1;56.7
74427;BME280;62859;53.906;27.430;2023-04-03T05:41:09;1010.3;;;2.2;56.4
74427;BME280;62859;53.906;27.430;2023-04-03T05:46:35;1010.4;;;2.3;56.5
74427;BME280;62859;53.906;27.430;2023-04-03T05:51:06;1010.4;;;2.4;56.3
74427;BME280;62859;53.906;27.430;2023-04-03T05:56:25;1010.4;;;2.6;56.4
74427;BME280;62859;53.906;27.430;2023-04-03T06:01:35;1010.3;;;2.7;55.4
74427;BME280;62859;53.906;27.430;2023-04-03T06:06:06;1010.4;;;2.8;54.6
74427;BME280;62859;53.906;27.430;2023-04-03T06:11:35;1010.5;;;2.8;54.3
74427;BME280;62859;53.906;27.430;2023-04-03T06:16:17;1010.5;;;2.8;54.2
74427;BME280;62859;53.906;27.430;2023-04-03T06:21:15;1010.5;;;2.7;54.5
74427;BME280;62859;53.906;27.430;2023-04-03T06:26:35;1010.6;;;2.7;54.4
74427;BME280;62859;53.906;27.430;2023-04-03T06:30:55;1010.5;;;2.7;55
74427;BME280;62859;53.906;27.430;2023-04-03T06:36:27;1010.5;;;2.9;54.7
74427;BME280;62859;53.906;27.430;2023-04-03T06:40:55;1010.6;;;3;53.8
74427;BME280;62859;53.906;27.430;2023-04-03T06:46:26;1010.5;;;3.1;53.6
74427;BME280;62859;53.906;27.430;2023-04-03T06:51:36;1010.6;;;3.2;52.6
74427;BME280;62859;53.906;27.430;2023-04-03T06:56:20;1010.7;;;3.3;52.3
74427;BME280;62859;53.906;27.430;2023-04-03T07:01:35;1010.7;;;3.4;51.8
74427;BME280;62859;53.906;27.430;2023-04-03T07:06:06;1010.8;;;3.5;51.9
74427;BME280;62859;53.906;27.430;2023-04-03T07:11:26;1010.9;;;3.7;53.7
74427;BME280;62859;53.906;27.430;2023-04-03T07:16:22;1011;;;4.2;50.9
74427;BME280;62859;53.906;27.430;2023-04-03T07:20:55;1011;;;4.3;49.9
74427;BME280;62859;53.906;27.430;2023-04-03T07:26:36;1011;;;4.2;48.8
74427;BME280;62859;53.906;27.430;2023-04-03T07:31:14;1011;;;4.2;49.3
74427;BME280;62859;53.906;27.430;2023-04-03T07:36:26;1010.9;;;4.1;48.8
74427;BME280;62859;53.906;27.430;2023-04-03T07:41:36;1011;;;4.1;48.8
74427;BME280;62859;53.906;27.430;2023-04-03T07:45:56;1011.1;;;4;48.2
74427;BME280;62859;53.906;27.430;2023-04-03T07:51:36;1011.1;;;3.8;48.8
74427;BME280;62859;53.906;27.430;2023-04-03T07:56:20;1011.1;;;4;49
74427;BME280;62859;53.906;27.430;2023-04-03T08:01:24;1011.2;;;4.1;47.3
74427;BME280;62859;53.906;27.430;2023-04-03T08:06:26;1011.3;;;4.2;47.7
74427;BME280;62859;53.906;27.430;2023-04-03T08:11:06;1011.2;;;4.2;47.7
74427;BME280;62859;53.906;27.430;2023-04-03T08:16:13;1011.2;;;4.4;46.8
74427;BME280;62859;53.906;27.430;2023-04-03T08:21:28;1011.3;;;4.6;46.9
74427;BME280;62859;53.906;27.430;2023-04-03T08:26:36;1011.3;;;4.8;46.3
74427;BME280;62859;53.906;27.430;2023-04-03T08:31:28;1011.4;;;5.5;44.7
74427;BME280;62859;53.906;27.430;2023-04-03T08:36:06;1011.4;;;6.1;43.4
74427;BME280;62859;53.906;27.430;2023-04-03T08:41:13;1011.4;;;6.6;43
74427;BME280;62859;53.906;27.430;2023-04-03T08:46:31;1011.6;;;6.9;42.2
74427;BME280;62859;53.906;27.430;2023-04-03T08:51:34;1011.6;;;6.6;42
74427;BME280;62859;53.906;27.430;2023-04-03T08:56:20;1011.6;;;6.3;41.8
74427;BME280;62859;53.906;27.430;2023-04-03T09:01:15;1011.6;;;6.5;41.6
74427;BME280;62859;53.906;27.430;2023-04-03T09:06:12;1011.7;;;6.6;40.8
74427;BME280;62859;53.906;27.430;2023-04-03T09:11:33;1011.7;;;6.8;40.7
74427;BME280;62859;53.906;27.430;2023-04-03T09:16:38;1011.7;;;6.8;40.8
74427;BME280;62859;53.906;27.430;2023-04-03T09:21:29;1011.8;;;6.8;42.1
74427;BME280;62859;53.906;27.430;2023-04-03T09:26:13;1011.9;;;6.6;41.9
74427;BME280;62859;53.906;27.430;2023-04-03T09:31:20;1011.8;;;6.4;42.1
74427;BME280;62859;53.906;27.430;2023-04-03T09:36:52;1011.9;;;6.3;42.1
74427;BME280;62859;53.906;27.430;2023-04-03T09:41:36;1011.9;;;6.4;42.2
74427;BME280;62859;53.906;27.430;2023-04-03T09:46:29;1011.9;;;6.4;41.5
74427;BME280;62859;53.906;27.430;2023-04-03T09:51:08;1011.9;;;6.4;41.5
74427;BME280;62859;53.906;27.430;2023-04-03T09:56:18;1011.9;;;6.5;41.6
74427;BME280;62859;53.906;27.430;2023-04-03T10:01:28;1012;;;6.4;42
74427;BME280;62859;53.906;27.430;2023-04-03T10:06:37;1011.9;;;6.2;40.2
74427;BME280;62859;53.906;27.430;2023-04-03T10:11:30;1012;;;6.6;40.1
74427;BME280;62859;53.906;27.430;2023-04-03T10:15:56;1012;;;7;39.3
74427;BME280;62859;53.906;27.430;2023-04-03T10:20:56;1012;;;7.3;38.8
74427;BME280;62859;53.906;27.430;2023-04-03T10:26:32;1012.1;;;7.7;38.7
74427;BME280;62859;53.906;27.430;2023-04-03T10:31:40;1012;;;7.7;38.2
74427;BME280;62859;53.906;27.430;2023-04-03T10:36:33;1012.1;;;7.7;37.6
74427;BME280;62859;53.906;27.430;2023-04-03T10:40:57;1012.1;;;7.9;37.8
74427;BME280;62859;53.906;27.430;2023-04-03T10:46:12;1012.1;;;7.8;37.8
74427;BME280;62859;53.906;27.430;2023-04-03T10:51:40;1012;;;7.4;37.8
74427;BME280;62859;53.906;27.430;2023-04-03T10:56:39;1012.1;;;7.2;38.4
74427;BME280;62859;53.906;27.430;2023-04-03T11:01:06;1012;;;7;39
74427;BME280;62859;53.906;27.430;2023-04-03T11:06:07;1012.1;;;7.1;40.4
74427;BME280;62859;53.906;27.430;2023-04-03T11:11:06;1012.1;;;7;39.8
74427;BME280;62859;53.906;27.430;2023-04-03T11:16:30;1012.1;;;6.8;39.6
74427;BME280;62859;53.906;27.430;2023-04-03T11:21:39;1012.1;;;6.5;40.1
74427;BME280;62859;53.906;27.430;2023-04-03T11:26:29;1012.1;;;6.4;39.8
74427;BME280;62859;53.906;27.430;2023-04-03T11:31:32;1012.1;;;6.3;39.8
74427;BME280;62859;53.906;27.430;2023-04-03T11:36:12;1012.1;;;6.1;39.9
74427;BME280;62859;53.906;27.430;2023-04-03T11:41:30;1012.1;;;6;40.6
74427;BME280;62859;53.906;27.430;2023-04-03T11:46:53;1012.1;;;6;40.5
74427;BME280;62859;53.906;27.430;2023-04-03T11:51:40;1012.1;;;6;40.8
74427;BME280;62859;53.906;27.430;2023-04-03T11:56:28;1012.1;;;6;40.7
74427;BME280;62859;53.906;27.430;2023-04-03T12:01:08;1012;;;6;40.6
74427;BME280;62859;53.906;27.430;2023-04-03T12:06:58;1012;;;5.9;39.9
74427;BME280;62859;53.906;27.430;2023-04-03T12:11:38;1012.1;;;5.8;40.2
74427;BME280;62859;53.906;27.430;2023-04-03T12:16:30;1012.2;;;5.9;40.6
74427;BME280;62859;53.906;27.430;2023-04-03T12:21:06;1012.2;;;5.8;40.9
74427;BME280;62859;53.906;27.430;2023-04-03T12:26:18;1012.2;;;5.8;40.4
74427;BME280;62859;53.906;27.430;2023-04-03T12:31:06;1012.1;;;5.8;40.7
74427;BME280;62859;53.906;27.430;2023-04-03T12:36:38;1012.2;;;5.8;40.6
74427;BME280;62859;53.906;27.430;2023-04-03T12:41:32;1012.1;;;5.7;40.4
74427;BME280;62859;53.906;27.430;2023-04-03T12:45:58;1012.2;;;5.7;40.4
74427;BME280;62859;53.906;27.430;2023-04-03T12:51:13;1012.3;;;5.9;40.4
74427;BME280;62859;53.906;27.430;2023-04-03T12:56:22;1012.3;;;5.9;39.8
74427;BME280;62859;53.906;27.430;2023-04-03T13:01:38;1012.3;;;5.9;40.2
74427;BME280;62859;53.906;27.430;2023-04-03T13:06:32;1012.3;;;5.9;40.8
74427;BME280;62859;53.906;27.430;2023-04-03T13:10:57;1012.3;;;5.8;41
74427;BME280;62859;53.906;27.430;2023-04-03T13:16:10;1012.3;;;5.7;41.4
74427;BME280;62859;53.906;27.430;2023-04-03T13:20:57;1012.3;;;5.6;41.3
74427;BME280;62859;53.906;27.430;2023-04-03T13:26:38;1012.3;;;5.5;40.8
74427;BME280;62859;53.906;27.430;2023-04-03T13:31:29;1012.3;;;5.5;40.2
74427;BME280;62859;53.906;27.430;2023-04-03T13:35:56;1012.3;;;5.4;40
74427;BME280;62859;53.906;27.430;2023-04-03T13:41:29;1012.3;;;5.3;40.3
74427;BME280;62859;53.906;27.430;2023-04-03T13:46:04;1012.2;;;5.4;39.4
74427;BME280;62859;53.906;27.430;2023-04-03T13:51:40;1012.3;;;5.3;38.7
74427;BME280;62859;53.906;27.430;2023-04-03T13:56:33;1012.3;;;5.3;39.1
74427;BME280;62859;53.906;27.430;2023-04-03T14:01:08;1012.3;;;5.4;39.5
74427;BME280;62859;53.906;27.430;2023-04-03T14:06:13;1012.3;;;5.5;39.5
74427;BME280;62859;53.906;27.430;2023-04-03T14:10:56;1012.3;;;5.5;39.6
74427;BME280;62859;53.906;27.430;2023-04-03T14:16:41;1012.4;;;5.4;40.1
74427;BME280;62859;53.906;27.430;2023-04-03T14:21:32;1012.4;;;5.4;39.9
74427;BME280;62859;53.906;27.430;2023-04-03T14:26:08;1012.4;;;5.4;39.4
74427;BME280;62859;53.906;27.430;2023-04-03T14:31:12;1012.4;;;5.3;39.5
74427;BME280;62859;53.906;27.430;2023-04-03T14:35:56;1012.4;;;5.1;40.3
74427;BME280;62859;53.906;27.430;2023-04-03T14:41:40;1012.5;;;5.1;41
74427;BME280;62859;53.906;27.430;2023-04-03T14:46:33;1012.6;;;5.1;41
74427;BME280;62859;53.906;27.430;2023-04-03T14:51:12;1012.6;;;5;41.2
74427;BME280;62859;53.906;27.430;2023-04-03T14:56:11;1012.5;;;4.9;41.1
74427;BME280;62859;53.906;27.430;2023-04-03T15:00:56;1012.6;;;4.9;41.4
74427;BME280;62859;53.906;27.430;2023-04-03T15:05:56;1012.6;;;4.8;41
74427;BME280;62859;53.906;27.430;2023-04-03T15:11:40;1012.6;;;4.8;41.4
74427;BME280;62859;53.906;27.430;2023-04-03T15:16:18;1012.7;;;4.7;41.4
74427;BME280;62859;53.906;27.430;2023-04-03T15:21:12;1012.7;;;4.7;41.9
74427;BME280;62859;53.906;27.430;2023-04-03T15:26:06;1012.8;;;4.7;43.4
74427;BME280;62859;53.906;27.430;2023-04-03T15:31:12;1012.8;;;4.8;44.4
74427;BME280;62859;53.906;27.430;2023-04-03T15:36:38;1012.8;;;4.7;44.6
74427;BME280;62859;53.906;27.430;2023-04-03T15:41:33;1012.8;;;4.7;44.8
74427;BME280;62859;53.906;27.430;2023-04-03T15:46:25;1012.8;;;4.6;44.5
74427;BME280;62859;53.906;27.430;2023-04-03T15:51:16;1012.8;;;4.6;44.4
74427;BME280;62859;53.906;27.430;2023-04-03T15:56:26;1012.8;;;4.6;44.1
74427;BME280;62859;53.906;27.430;2023-04-03T16:00:56;1012.8;;;4.5;44.2
74427;BME280;62859;53.906;27.430;2023-04-03T16:06:20;1012.9;;;4.4;44.8
74427;BME280;62859;53.906;27.430;2023-04-03T16:11:38;1012.9;;;4.5;45
74427;BME280;62859;53.906;27.430;2023-04-03T16:16:06;1012.9;;;4.5;44.2
74427;BME280;62859;53.906;27.430;2023-04-03T16:21:26;1012.9;;;4.4;43.9
74427;BME280;62859;53.906;27.430;2023-04-03T16:25:56;1012.9;;;4.4;43.7
74427;BME280;62859;53.906;27.430;2023-04-03T16:31:10;1012.9;;;4.4;43.6
74427;BME280;62859;53.906;27.430;2023-04-03T16:36:40;1013;;;4.4;43.7
74427;BME280;62859;53.906;27.430;2023-04-03T16:41:06;1013.1;;;4.3;43.7
74427;BME280;62859;53.906;27.430;2023-04-03T16:46:26;1013.2;;;4.2;43.8
74427;BME280;62859;53.906;27.430;2023-04-03T16:51:18;1013.2;;;4.1;44.2
74427;BME280;62859;53.906;27.430;2023-04-03T16:56:20;1013.2;;;4;44.5
74427;BME280;62859;53.906;27.430;2023-04-03T17:01:40;1013.3;;;4;44.5
74427;BME280;62859;53.906;27.430;2023-04-03T17:06:07;1013.3;;;4;44.5
74427;BME280;62859;53.906;27.430;2023-04-03T17:11:26;1013.3;;;3.9;44.8
74427;BME280;62859;53.906;27.430;2023-04-03T17:16:07;1013.3;;;3.8;44.9
74427;BME280;62859;53.906;27.430;2023-04-03T17:21:28;1013.4;;;3.8;45
74427;BME280;62859;53.906;27.430;2023-04-03T17:26:40;1013.4;;;3.8;44.9
74427;BME280;62859;53.906;27.430;2023-04-03T17:30:56;1013.4;;;3.8;44.9
74427;BME280;62859;53.906;27.430;2023-04-03T17:36:26;1013.4;;;3.7;45
74427;BME280;62859;53.906;27.430;2023-04-03T17:40:56;1013.4;;;3.7;45.3
74427;BME280;62859;53.906;27.430;2023-04-03T17:46:20;1013.4;;;3.7;45.2
74427;BME280;62859;53.906;27.430;2023-04-03T17:51:40;1013.5;;;3.7;45.1
74427;BME280;62859;53.906;27.430;2023-04-03T17:56:21;1013.4;;;3.7;45.1
74427;BME280;62859;53.906;27.430;2023-04-03T18:01:26;1013.4;;;3.6;45.3
74427;BME280;62859;53.906;27.430;2023-04-03T18:05:56;1013.3;;;3.6;45.2
74427;BME280;62859;53.906;27.430;2023-04-03T18:10:56;1013.3;;;3.5;45.3
74427;BME280;62859;53.906;27.430;2023-04-03T18:16:36;1013.3;;;3.5;45.5
74427;BME280;62859;53.906;27.430;2023-04-03T18:21:18;1013.3;;;3.5;45.6
74427;BME280;62859;53.906;27.430;2023-04-03T18:26:25;1013.2;;;3.5;45.7
74427;BME280;62859;53.906;27.430;2023-04-03T18:31:24;1013.2;;;3.5;45.9
74427;BME280;62859;53.906;27.430;2023-04-03T18:36:18;1013.2;;;3.5;45.7
74427;BME280;62859;53.906;27.430;2023-04-03T18:41:40;1013.2;;;3.6;45.6
74427;BME280;62859;53.906;27.430;2023-04-03T18:46:20;1013.1;;;3.5;45.6
74427;BME280;62859;53.906;27.430;2023-04-03T18:51:26;1013;;;3.5;45.5
74427;BME280;62859;53.906;27.430;2023-04-03T18:55:56;1013;;;3.5;45.7
74427;BME280;62859;53.906;27.430;2023-04-03T19:01:20;1013;;;3.4;45.7
74427;BME280;62859;53.906;27.430;2023-04-03T19:06:40;1012.9;;;3.4;45.9
74427;BME280;62859;53.906;27.430;2023-04-03T19:11:20;1012.9;;;3.5;45.8
74427;BME280;62859;53.906;27.430;2023-04-03T19:16:26;1012.8;;;3.5;45.9
74427;BME280;62859;53.906;27.430;2023-04-03T19:21:08;1012.8;;;3.4;45.8
74427;BME280;62859;53.906;27.430;2023-04-03T19:26:20;1012.8;;;3.4;45.9
74427;BME280;62859;53.906;27.430;2023-04-03T19:31:40;1012.8;;;3.5;45.9
74427;BME280;62859;53.906;27.430;2023-04-03T19:36:22;1012.8;;;3.4;45.8
74427;BME280;62859;53.906;27.430;2023-04-03T19:41:27;1012.7;;;3.5;45.6
74427;BME280;62859;53.906;27.430;2023-04-03T19:45:56;1012.7;;;3.4;45.8
74427;BME280;62859;53.906;27.430;2023-04-03T19:51:18;1012.8;;;3.5;46.2
74427;BME280;62859;53.906;27.430;2023-04-03T19:56:40;1012.8;;;3.5;46.3
74427;BME280;62859;53.906;27.430;2023-04-03T20:01:30;1012.8;;;3.5;46.2
74427;BME280;62859;53.906;27.430;2023-04-03T20:06:26;1012.7;;;3.4;46.4
74427;BME280;62859;53.906;27.430;2023-04-03T20:10:56;1012.7;;;3.3;46.1
74427;BME280;62859;53.906;27.430;2023-04-03T20:16:20;1012.7;;;3.3;46.2
74427;BME280;62859;53.906;27.430;2023-04-03T20:21:34;1012.7;;;3.3;46.4
74427;BME280;62859;53.906;27.430;2023-04-03T20:26:21;1012.7;;;3.2;46.5
74427;BME280;62859;53.906;27.430;2023-04-03T20:31:12;1012.6;;;3.3;46.5
74427;BME280;62859;53.906;27.430;2023-04-03T20:36:06;1012.7;;;3.3;46.5
74427;BME280;62859;53.906;27.430;2023-04-03T20:40:56;1012.6;;;3.3;46.7
74427;BME280;62859;53.906;27.430;2023-04-03T20:46:40;1012.6;;;3.3;46.7
74427;BME280;62859;53.906;27.430;2023-04-03T20:51:32;1012.6;;;3.3;46.6
74427;BME280;62859;53.906;27.430;2023-04-03T20:56:28;1012.6;;;3.2;46.6
74427;BME280;62859;53.906;27.430;2023-04-03T21:01:11;1012.6;;;3.2;46.8
74427;BME280;62859;53.906;27.430;2023-04-03T21:21:26;1012.3;;;3.2;47.1
74427;BME280;62859;53.906;27.430;2023-04-03T21:25:56;1012.4;;;3.3;47.1
74427;BME280;62859;53.906;27.430;2023-04-03T21:31:50;1012.4;;;3.2;47.3
74427;BME280;62859;53.906;27.430;2023-04-03T21:36:40;1012.4;;;3.2;47.4
74427;BME280;62859;53.906;27.430;2023-04-03T21:41:10;1012.4;;;3.2;47.4
74427;BME280;62859;53.906;27.430;2023-04-03T21:46:26;1012.5;;;3.1;47.6
74427;BME280;62859;53.906;27.430;2023-04-03T21:51:01;1012.5;;;3.2;47.3
74427;BME280;62859;53.906;27.430;2023-04-03T21:56:26;1012.5;;;3.2;47.7
74427;BME280;62859;53.906;27.430;2023-04-03T22:01:40;1012.5;;;3.2;47.5
74427;BME280;62859;53.906;27.430;2023-04-03T22:06:20;1012.5;;;3.3;47.4
74427;BME280;62859;53.906;27.430;2023-04-03T22:11:26;1012.5;;;3.4;47.4
74427;BME280;62859;53.906;27.430;2023-04-03T22:16:06;1012.5;;;3.4;47.2
74427;BME280;62859;53.906;27.430;2023-04-03T22:21:20;1012.5;;;3.3;47.4
74427;BME280;62859;53.906;27.430;2023-04-03T22:26:40;1012.4;;;3.3;47.6
74427;BME280;62859;53.906;27.430;2023-04-03T22:31:20;1012.4;;;3.3;47.7
74427;BME280;62859;53.906;27.430;2023-04-03T22:36:26;1012.4;;;3.3;47.8
74427;BME280;62859;53.906;27.430;2023-04-03T22:41:06;1012.5;;;3.3;48.2
74427;BME280;62859;53.906;27.430;2023-04-03T22:46:26;1012.5;;;3.3;48.2
74427;BME280;62859;53.906;27.430;2023-04-03T22:51:40;1012.5;;;3.3;48.1
74427;BME280;62859;53.906;27.430;2023-04-03T22:56:20;1012.4;;;3.3;48.5
74427;BME280;62859;53.906;27.430;2023-04-03T23:01:24;1012.4;;;3.3;48.6
74427;BME280;62859;53.906;27.430;2023-04-03T23:05:54;1012.3;;;3.3;48.6
74427;BME280;62859;53.906;27.430;2023-04-03T23:11:24;1012.2;;;3.3;48.6
74427;BME280;62859;53.906;27.430;2023-04-03T23:16:38;1012.2;;;3.3;48.9
74427;BME280;62859;53.906;27.430;2023-04-03T23:21:18;1012.2;;;3.3;49.2
74427;BME280;62859;53.906;27.430;2023-04-03T23:26:08;1012.2;;;3.3;49.1
74427;BME280;62859;53.906;27.430;2023-04-03T23:31:03;1012.2;;;3.3;49.1
74427;BME280;62859;53.906;27.430;2023-04-03T23:36:22;1012.3;;;3.3;49.3
74427;BME280;62859;53.906;27.430;2023-04-03T23:41:34;1012.3;;;3.3;49.5
74427;BME280;62859;53.906;27.430;2023-04-03T23:46:06;1012.2;;;3.3;49.6
74427;BME280;62859;53.906;27.430;2023-04-03T23:51:20;1012.2;;;3.3;49.6
74427;BME280;62859;53.906;27.430;2023-04-03T23:55:52;1012.2;;;3.3;49.8
